sensor_id;sensor_type;location;lat;lon;timestamp;P1;durP1;ratioP1;P2;durP2;ratioP2
3625;SDS011;1827;50.534;8.316;2023-06-26T00:00:58;22.50;;;8.40;;
3625;SDS011;1827;50.534;8.316;2023-06-26T00:03:24;22.80;;;9.23;;
3625;SDS011;1827;50.534;8.316;2023-06-26T00:05:50;23.40;;;9.00;;
3625;SDS011;1827;50.534;8.316;2023-06-26T00:08:16;22.57;;;8.70;;
3625;SDS011;1827;50.534;8.316;2023-06-26T00:10:42;24.40;;;9.10;;
3625;SDS011;1827;50.534;8.316;2023-06-26T00:13:08;25.43;;;9.30;;
3625;SDS011;1827;50.534;8.316;2023-06-26T00:15:37;22.60;;;8.90;;
3625;SDS011;1827;50.534;8.316;2023-06-26T00:18:03;23.10;;;8.57;;
3625;SDS011;1827;50.534;8.316;2023-06-26T00:20:29;23.27;;;9.10;;
3625;SDS011;1827;50.534;8.316;2023-06-26T00:22:59;21.67;;;8.43;;
3625;SDS011;1827;50.534;8.316;2023-06-26T00:25:25;24.27;;;9.70;;
3625;SDS011;1827;50.534;8.316;2023-06-26T00:27:51;25.30;;;9.80;;
3625;SDS011;1827;50.534;8.316;2023-06-26T00:30:19;22.47;;;9.30;;
3625;SDS011;1827;50.534;8.316;2023-06-26T00:32:45;23.63;;;9.40;;
3625;SDS011;1827;50.534;8.316;2023-06-26T00:35:11;23.30;;;9.17;;
3625;SDS011;1827;50.534;8.316;2023-06-26T00:37:37;21.87;;;8.50;;
3625;SDS011;1827;50.534;8.316;2023-06-26T00:40:03;23.27;;;9.30;;
3625;SDS011;1827;50.534;8.316;2023-06-26T00:42:31;23.40;;;9.37;;
3625;SDS011;1827;50.534;8.316;2023-06-26T00:45:00;24.03;;;9.93;;
3625;SDS011;1827;50.534;8.316;2023-06-26T00:47:26;22.70;;;8.90;;
3625;SDS011;1827;50.534;8.316;2023-06-26T00:49:52;23.07;;;8.80;;
3625;SDS011;1827;50.534;8.316;2023-06-26T00:52:20;24.53;;;9.07;;
3625;SDS011;1827;50.534;8.316;2023-06-26T00:54:49;22.07;;;8.47;;
3625;SDS011;1827;50.534;8.316;2023-06-26T00:57:17;22.80;;;8.70;;
3625;SDS011;1827;50.534;8.316;2023-06-26T00:59:45;23.50;;;8.80;;
3625;SDS011;1827;50.534;8.316;2023-06-26T01:02:11;25.47;;;8.73;;
3625;SDS011;1827;50.534;8.316;2023-06-26T01:04:37;25.30;;;8.40;;
3625;SDS011;1827;50.534;8.316;2023-06-26T01:07:11;21.80;;;8.63;;
3625;SDS011;1827;50.534;8.316;2023-06-26T01:09:38;24.90;;;9.07;;
3625;SDS011;1827;50.534;8.316;2023-06-26T01:12:04;23.43;;;9.17;;
3625;SDS011;1827;50.534;8.316;2023-06-26T01:14:30;25.47;;;9.50;;
3625;SDS011;1827;50.534;8.316;2023-06-26T01:16:58;27.40;;;8.93;;
3625;SDS011;1827;50.534;8.316;2023-06-26T01:19:29;25.10;;;9.53;;
3625;SDS011;1827;50.534;8.316;2023-06-26T01:25:26;22.50;;;8.40;;
3625;SDS011;1827;50.534;8.316;2023-06-26T01:28:08;25.40;;;8.83;;
3625;SDS011;1827;50.534;8.316;2023-06-26T01:30:40;24.63;;;9.83;;
3625;SDS011;1827;50.534;8.316;2023-06-26T01:33:08;27.87;;;9.50;;
3625;SDS011;1827;50.534;8.316;2023-06-26T01:35:34;25.30;;;9.63;;
3625;SDS011;1827;50.534;8.316;2023-06-26T01:38:11;27.53;;;10.10;;
3625;SDS011;1827;50.534;8.316;2023-06-26T01:40:38;23.53;;;9.47;;
3625;SDS011;1827;50.534;8.316;2023-06-26T01:43:08;24.33;;;9.70;;
3625;SDS011;1827;50.534;8.316;2023-06-26T01:45:41;22.33;;;9.00;;
3625;SDS011;1827;50.534;8.316;2023-06-26T01:48:09;25.50;;;9.43;;
3625;SDS011;1827;50.534;8.316;2023-06-26T01:50:45;22.80;;;9.10;;
3625;SDS011;1827;50.534;8.316;2023-06-26T01:53:15;23.73;;;9.47;;
3625;SDS011;1827;50.534;8.316;2023-06-26T01:55:59;23.20;;;9.13;;
3625;SDS011;1827;50.534;8.316;2023-06-26T01:58:31;24.87;;;9.57;;
3625;SDS011;1827;50.534;8.316;2023-06-26T02:01:00;23.53;;;9.73;;
3625;SDS011;1827;50.534;8.316;2023-06-26T02:03:27;25.13;;;9.90;;
3625;SDS011;1827;50.534;8.316;2023-06-26T02:05:55;26.00;;;9.63;;
3625;SDS011;1827;50.534;8.316;2023-06-26T02:08:25;24.37;;;9.30;;
3625;SDS011;1827;50.534;8.316;2023-06-26T02:10:55;27.00;;;9.57;;
3625;SDS011;1827;50.534;8.316;2023-06-26T02:13:23;23.50;;;9.50;;
3625;SDS011;1827;50.534;8.316;2023-06-26T02:15:52;23.80;;;8.97;;
3625;SDS011;1827;50.534;8.316;2023-06-26T02:18:17;25.27;;;10.17;;
3625;SDS011;1827;50.534;8.316;2023-06-26T02:20:43;35.60;;;9.83;;
3625;SDS011;1827;50.534;8.316;2023-06-26T02:23:12;23.70;;;9.77;;
3625;SDS011;1827;50.534;8.316;2023-06-26T02:25:41;26.57;;;9.83;;
3625;SDS011;1827;50.534;8.316;2023-06-26T02:28:08;23.33;;;9.37;;
3625;SDS011;1827;50.534;8.316;2023-06-26T02:30:35;22.70;;;9.10;;
3625;SDS011;1827;50.534;8.316;2023-06-26T02:33:00;23.80;;;8.80;;
3625;SDS011;1827;50.534;8.316;2023-06-26T02:35:29;28.53;;;10.33;;
3625;SDS011;1827;50.534;8.316;2023-06-26T02:37:58;25.13;;;9.50;;
3625;SDS011;1827;50.534;8.316;2023-06-26T02:40:29;25.00;;;10.40;;
3625;SDS011;1827;50.534;8.316;2023-06-26T02:42:55;26.33;;;9.87;;
3625;SDS011;1827;50.534;8.316;2023-06-26T02:45:21;24.70;;;10.03;;
3625;SDS011;1827;50.534;8.316;2023-06-26T02:47:47;24.87;;;9.57;;
3625;SDS011;1827;50.534;8.316;2023-06-26T02:50:13;24.77;;;9.80;;
3625;SDS011;1827;50.534;8.316;2023-06-26T02:53:03;26.70;;;9.70;;
3625;SDS011;1827;50.534;8.316;2023-06-26T02:55:29;24.70;;;9.77;;
3625;SDS011;1827;50.534;8.316;2023-06-26T02:58:00;23.97;;;9.47;;
3625;SDS011;1827;50.534;8.316;2023-06-26T03:00:26;25.10;;;8.73;;
3625;SDS011;1827;50.534;8.316;2023-06-26T03:02:58;23.00;;;9.07;;
3625;SDS011;1827;50.534;8.316;2023-06-26T03:05:25;28.00;;;9.53;;
3625;SDS011;1827;50.534;8.316;2023-06-26T03:07:51;25.90;;;9.63;;
3625;SDS011;1827;50.534;8.316;2023-06-26T03:10:20;26.27;;;10.13;;
3625;SDS011;1827;50.534;8.316;2023-06-26T03:12:47;36.37;;;11.00;;
3625;SDS011;1827;50.534;8.316;2023-06-26T03:15:12;23.73;;;9.57;;
3625;SDS011;1827;50.534;8.316;2023-06-26T03:17:39;25.90;;;9.80;;
3625;SDS011;1827;50.534;8.316;2023-06-26T03:20:12;33.20;;;11.20;;
3625;SDS011;1827;50.534;8.316;2023-06-26T03:22:50;24.27;;;9.70;;
3625;SDS011;1827;50.534;8.316;2023-06-26T03:25:17;27.30;;;9.93;;
3625;SDS011;1827;50.534;8.316;2023-06-26T03:27:43;32.30;;;10.20;;
3625;SDS011;1827;50.534;8.316;2023-06-26T03:30:10;27.77;;;9.87;;
3625;SDS011;1827;50.534;8.316;2023-06-26T03:32:38;26.90;;;10.00;;
3625;SDS011;1827;50.534;8.316;2023-06-26T03:35:06;26.57;;;10.00;;
3625;SDS011;1827;50.534;8.316;2023-06-26T03:37:41;27.00;;;10.20;;
3625;SDS011;1827;50.534;8.316;2023-06-26T03:40:10;25.53;;;9.73;;
3625;SDS011;1827;50.534;8.316;2023-06-26T03:42:36;25.80;;;10.43;;
3625;SDS011;1827;50.534;8.316;2023-06-26T03:45:05;24.73;;;9.43;;
3625;SDS011;1827;50.534;8.316;2023-06-26T03:47:35;31.20;;;10.73;;
3625;SDS011;1827;50.534;8.316;2023-06-26T03:50:01;27.03;;;9.80;;
3625;SDS011;1827;50.534;8.316;2023-06-26T03:52:27;28.20;;;10.70;;
3625;SDS011;1827;50.534;8.316;2023-06-26T03:54:59;23.70;;;9.47;;
3625;SDS011;1827;50.534;8.316;2023-06-26T03:57:25;29.47;;;11.30;;
3625;SDS011;1827;50.534;8.316;2023-06-26T03:59:51;27.93;;;11.17;;
3625;SDS011;1827;50.534;8.316;2023-06-26T04:02:20;25.80;;;10.33;;
3625;SDS011;1827;50.534;8.316;2023-06-26T04:04:49;25.37;;;10.00;;
3625;SDS011;1827;50.534;8.316;2023-06-26T04:07:15;23.60;;;9.87;;
3625;SDS011;1827;50.534;8.316;2023-06-26T04:09:42;24.00;;;10.03;;
3625;SDS011;1827;50.534;8.316;2023-06-26T04:12:08;25.37;;;10.77;;
3625;SDS011;1827;50.534;8.316;2023-06-26T04:14:34;28.83;;;11.30;;
3625;SDS011;1827;50.534;8.316;2023-06-26T04:17:02;33.20;;;11.33;;
3625;SDS011;1827;50.534;8.316;2023-06-26T04:19:29;25.10;;;10.40;;
3625;SDS011;1827;50.534;8.316;2023-06-26T04:21:55;25.67;;;10.27;;
3625;SDS011;1827;50.534;8.316;2023-06-26T04:24:26;26.30;;;9.80;;
3625;SDS011;1827;50.534;8.316;2023-06-26T04:26:57;25.47;;;10.30;;
3625;SDS011;1827;50.534;8.316;2023-06-26T04:29:31;23.43;;;9.57;;
3625;SDS011;1827;50.534;8.316;2023-06-26T04:31:57;26.80;;;10.17;;
3625;SDS011;1827;50.534;8.316;2023-06-26T04:34:26;32.03;;;10.37;;
3625;SDS011;1827;50.534;8.316;2023-06-26T04:36:53;25.40;;;10.63;;
3625;SDS011;1827;50.534;8.316;2023-06-26T04:39:22;28.83;;;11.63;;
3625;SDS011;1827;50.534;8.316;2023-06-26T04:41:47;27.37;;;12.03;;
3625;SDS011;1827;50.534;8.316;2023-06-26T04:44:17;26.97;;;11.70;;
3625;SDS011;1827;50.534;8.316;2023-06-26T04:46:45;28.17;;;12.13;;
3625;SDS011;1827;50.534;8.316;2023-06-26T04:49:22;25.90;;;10.70;;
3625;SDS011;1827;50.534;8.316;2023-06-26T04:51:51;25.47;;;10.53;;
3625;SDS011;1827;50.534;8.316;2023-06-26T04:54:21;28.57;;;10.70;;
3625;SDS011;1827;50.534;8.316;2023-06-26T04:56:51;26.33;;;10.47;;
3625;SDS011;1827;50.534;8.316;2023-06-26T04:59:17;25.80;;;10.90;;
3625;SDS011;1827;50.534;8.316;2023-06-26T05:01:45;27.07;;;10.97;;
3625;SDS011;1827;50.534;8.316;2023-06-26T05:04:14;23.50;;;9.83;;
3625;SDS011;1827;50.534;8.316;2023-06-26T05:06:51;29.87;;;10.70;;
3625;SDS011;1827;50.534;8.316;2023-06-26T05:09:22;25.87;;;10.63;;
3625;SDS011;1827;50.534;8.316;2023-06-26T05:11:47;27.90;;;10.03;;
3625;SDS011;1827;50.534;8.316;2023-06-26T05:14:22;35.30;;;10.20;;
3625;SDS011;1827;50.534;8.316;2023-06-26T05:16:48;22.67;;;9.10;;
3625;SDS011;1827;50.534;8.316;2023-06-26T05:19:18;25.97;;;10.40;;
3625;SDS011;1827;50.534;8.316;2023-06-26T05:21:48;26.77;;;9.90;;
3625;SDS011;1827;50.534;8.316;2023-06-26T05:24:15;24.37;;;9.97;;
3625;SDS011;1827;50.534;8.316;2023-06-26T05:26:42;28.13;;;10.00;;
3625;SDS011;1827;50.534;8.316;2023-06-26T05:29:09;27.33;;;10.30;;
3625;SDS011;1827;50.534;8.316;2023-06-26T05:31:41;25.43;;;9.30;;
3625;SDS011;1827;50.534;8.316;2023-06-26T05:34:10;23.70;;;9.80;;
3625;SDS011;1827;50.534;8.316;2023-06-26T05:36:36;26.40;;;10.30;;
3625;SDS011;1827;50.534;8.316;2023-06-26T05:39:06;26.40;;;9.70;;
3625;SDS011;1827;50.534;8.316;2023-06-26T05:41:33;23.00;;;8.97;;
3625;SDS011;1827;50.534;8.316;2023-06-26T05:43:59;24.40;;;10.00;;
3625;SDS011;1827;50.534;8.316;2023-06-26T05:46:25;23.03;;;8.70;;
3625;SDS011;1827;50.534;8.316;2023-06-26T05:48:51;21.63;;;8.07;;
3625;SDS011;1827;50.534;8.316;2023-06-26T05:51:17;24.27;;;8.40;;
3625;SDS011;1827;50.534;8.316;2023-06-26T05:53:43;22.40;;;8.10;;
3625;SDS011;1827;50.534;8.316;2023-06-26T05:56:10;21.43;;;7.60;;
3625;SDS011;1827;50.534;8.316;2023-06-26T05:58:38;25.87;;;8.27;;
3625;SDS011;1827;50.534;8.316;2023-06-26T06:01:10;21.50;;;7.80;;
3625;SDS011;1827;50.534;8.316;2023-06-26T06:03:48;21.27;;;7.87;;
3625;SDS011;1827;50.534;8.316;2023-06-26T06:06:17;20.20;;;7.50;;
3625;SDS011;1827;50.534;8.316;2023-06-26T06:08:43;23.00;;;8.07;;
3625;SDS011;1827;50.534;8.316;2023-06-26T06:11:09;21.67;;;7.70;;
3625;SDS011;1827;50.534;8.316;2023-06-26T06:13:35;20.07;;;7.60;;
3625;SDS011;1827;50.534;8.316;2023-06-26T06:16:17;20.97;;;7.40;;
3625;SDS011;1827;50.534;8.316;2023-06-26T06:18:59;22.30;;;7.17;;
3625;SDS011;1827;50.534;8.316;2023-06-26T06:21:31;19.23;;;6.40;;
3625;SDS011;1827;50.534;8.316;2023-06-26T06:24:00;19.80;;;6.97;;
3625;SDS011;1827;50.534;8.316;2023-06-26T06:26:33;18.63;;;6.47;;
3625;SDS011;1827;50.534;8.316;2023-06-26T06:29:01;22.63;;;6.60;;
3625;SDS011;1827;50.534;8.316;2023-06-26T06:31:32;21.07;;;6.80;;
3625;SDS011;1827;50.534;8.316;2023-06-26T06:33:59;23.97;;;6.20;;
3625;SDS011;1827;50.534;8.316;2023-06-26T06:36:29;18.40;;;6.17;;
3625;SDS011;1827;50.534;8.316;2023-06-26T06:39:03;18.17;;;6.50;;
3625;SDS011;1827;50.534;8.316;2023-06-26T06:41:31;20.60;;;5.97;;
3625;SDS011;1827;50.534;8.316;2023-06-26T06:43:58;17.93;;;6.33;;
3625;SDS011;1827;50.534;8.316;2023-06-26T06:46:25;19.37;;;6.80;;
3625;SDS011;1827;50.534;8.316;2023-06-26T06:48:52;20.00;;;6.07;;
3625;SDS011;1827;50.534;8.316;2023-06-26T06:51:20;19.73;;;6.47;;
3625;SDS011;1827;50.534;8.316;2023-06-26T06:53:50;18.20;;;6.13;;
3625;SDS011;1827;50.534;8.316;2023-06-26T06:56:16;20.53;;;6.00;;
3625;SDS011;1827;50.534;8.316;2023-06-26T06:58:46;19.10;;;6.50;;
3625;SDS011;1827;50.534;8.316;2023-06-26T07:01:14;20.50;;;6.57;;
3625;SDS011;1827;50.534;8.316;2023-06-26T07:03:43;19.40;;;6.90;;
3625;SDS011;1827;50.534;8.316;2023-06-26T07:06:13;18.10;;;5.87;;
3625;SDS011;1827;50.534;8.316;2023-06-26T07:08:39;18.33;;;6.37;;
3625;SDS011;1827;50.534;8.316;2023-06-26T07:11:05;18.63;;;5.87;;
3625;SDS011;1827;50.534;8.316;2023-06-26T07:13:31;16.47;;;5.67;;
3625;SDS011;1827;50.534;8.316;2023-06-26T07:15:59;20.40;;;6.10;;
3625;SDS011;1827;50.534;8.316;2023-06-26T07:18:29;23.03;;;5.37;;
3625;SDS011;1827;50.534;8.316;2023-06-26T07:20:58;15.53;;;5.33;;
3625;SDS011;1827;50.534;8.316;2023-06-26T07:23:29;15.40;;;5.63;;
3625;SDS011;1827;50.534;8.316;2023-06-26T07:26:02;18.07;;;5.87;;
3625;SDS011;1827;50.534;8.316;2023-06-26T07:28:31;16.77;;;5.60;;
3625;SDS011;1827;50.534;8.316;2023-06-26T07:31:02;18.80;;;5.73;;
3625;SDS011;1827;50.534;8.316;2023-06-26T07:33:28;17.00;;;5.40;;
3625;SDS011;1827;50.534;8.316;2023-06-26T07:35:59;19.10;;;5.57;;
3625;SDS011;1827;50.534;8.316;2023-06-26T07:38:25;17.87;;;5.40;;
3625;SDS011;1827;50.534;8.316;2023-06-26T07:40:54;15.93;;;5.20;;
3625;SDS011;1827;50.534;8.316;2023-06-26T07:43:25;16.93;;;5.30;;
3625;SDS011;1827;50.534;8.316;2023-06-26T07:45:54;28.20;;;5.90;;
3625;SDS011;1827;50.534;8.316;2023-06-26T07:48:24;17.00;;;5.27;;
3625;SDS011;1827;50.534;8.316;2023-06-26T07:50:52;19.47;;;5.63;;
3625;SDS011;1827;50.534;8.316;2023-06-26T07:53:21;25.20;;;6.13;;
3625;SDS011;1827;50.534;8.316;2023-06-26T07:55:49;23.00;;;6.43;;
3625;SDS011;1827;50.534;8.316;2023-06-26T07:58:20;19.77;;;5.70;;
3625;SDS011;1827;50.534;8.316;2023-06-26T08:00:51;20.50;;;6.20;;
3625;SDS011;1827;50.534;8.316;2023-06-26T08:03:21;23.37;;;6.00;;
3625;SDS011;1827;50.534;8.316;2023-06-26T08:05:49;16.17;;;4.97;;
3625;SDS011;1827;50.534;8.316;2023-06-26T08:08:16;23.73;;;5.50;;
3625;SDS011;1827;50.534;8.316;2023-06-26T08:10:44;18.17;;;6.03;;
3625;SDS011;1827;50.534;8.316;2023-06-26T08:13:18;29.17;;;6.03;;
3625;SDS011;1827;50.534;8.316;2023-06-26T08:15:48;20.80;;;6.27;;
3625;SDS011;1827;50.534;8.316;2023-06-26T08:18:15;18.70;;;6.13;;
3625;SDS011;1827;50.534;8.316;2023-06-26T08:20:44;23.10;;;5.67;;
3625;SDS011;1827;50.534;8.316;2023-06-26T08:23:15;19.27;;;5.90;;
3625;SDS011;1827;50.534;8.316;2023-06-26T08:25:50;19.60;;;5.70;;
3625;SDS011;1827;50.534;8.316;2023-06-26T08:28:17;19.63;;;6.10;;
3625;SDS011;1827;50.534;8.316;2023-06-26T08:30:46;19.17;;;6.17;;
3625;SDS011;1827;50.534;8.316;2023-06-26T08:33:18;19.27;;;6.30;;
3625;SDS011;1827;50.534;8.316;2023-06-26T08:35:49;22.37;;;6.17;;
3625;SDS011;1827;50.534;8.316;2023-06-26T08:38:19;20.53;;;6.00;;
3625;SDS011;1827;50.534;8.316;2023-06-26T08:40:48;16.37;;;5.43;;
3625;SDS011;1827;50.534;8.316;2023-06-26T08:43:18;19.03;;;5.53;;
3625;SDS011;1827;50.534;8.316;2023-06-26T08:45:49;19.47;;;5.57;;
3625;SDS011;1827;50.534;8.316;2023-06-26T08:48:17;20.53;;;6.20;;
3625;SDS011;1827;50.534;8.316;2023-06-26T08:50:53;18.90;;;5.47;;
3625;SDS011;1827;50.534;8.316;2023-06-26T08:56:20;19.37;;;5.40;;
3625;SDS011;1827;50.534;8.316;2023-06-26T08:58:54;15.80;;;5.03;;
3625;SDS011;1827;50.534;8.316;2023-06-26T09:01:28;15.60;;;4.60;;
3625;SDS011;1827;50.534;8.316;2023-06-26T09:04:01;16.13;;;5.40;;
3625;SDS011;1827;50.534;8.316;2023-06-26T09:06:29;17.80;;;5.20;;
3625;SDS011;1827;50.534;8.316;2023-06-26T09:08:59;18.63;;;5.13;;
3625;SDS011;1827;50.534;8.316;2023-06-26T09:11:33;15.87;;;4.73;;
3625;SDS011;1827;50.534;8.316;2023-06-26T09:14:01;15.87;;;5.17;;
3625;SDS011;1827;50.534;8.316;2023-06-26T09:16:38;15.50;;;4.70;;
3625;SDS011;1827;50.534;8.316;2023-06-26T09:19:11;22.63;;;4.60;;
3625;SDS011;1827;50.534;8.316;2023-06-26T09:21:42;16.27;;;4.93;;
3625;SDS011;1827;50.534;8.316;2023-06-26T09:24:13;20.60;;;5.40;;
3625;SDS011;1827;50.534;8.316;2023-06-26T09:26:45;15.60;;;4.80;;
3625;SDS011;1827;50.534;8.316;2023-06-26T09:29:15;14.67;;;3.80;;
3625;SDS011;1827;50.534;8.316;2023-06-26T09:31:44;17.63;;;4.73;;
3625;SDS011;1827;50.534;8.316;2023-06-26T09:34:10;17.00;;;4.90;;
3625;SDS011;1827;50.534;8.316;2023-06-26T09:36:39;17.67;;;4.47;;
3625;SDS011;1827;50.534;8.316;2023-06-26T09:39:16;17.13;;;4.63;;
3625;SDS011;1827;50.534;8.316;2023-06-26T09:41:48;21.83;;;5.00;;
3625;SDS011;1827;50.534;8.316;2023-06-26T09:44:16;17.20;;;5.10;;
3625;SDS011;1827;50.534;8.316;2023-06-26T09:46:44;16.70;;;5.27;;
3625;SDS011;1827;50.534;8.316;2023-06-26T09:49:13;21.97;;;5.47;;
3625;SDS011;1827;50.534;8.316;2023-06-26T09:52:01;20.90;;;5.50;;
3625;SDS011;1827;50.534;8.316;2023-06-26T09:54:36;19.33;;;5.47;;
3625;SDS011;1827;50.534;8.316;2023-06-26T09:57:08;20.40;;;5.33;;
3625;SDS011;1827;50.534;8.316;2023-06-26T09:59:36;19.10;;;5.60;;
3625;SDS011;1827;50.534;8.316;2023-06-26T10:02:06;20.80;;;5.30;;
3625;SDS011;1827;50.534;8.316;2023-06-26T10:04:37;20.70;;;5.30;;
3625;SDS011;1827;50.534;8.316;2023-06-26T10:07:06;24.77;;;5.23;;
3625;SDS011;1827;50.534;8.316;2023-06-26T10:09:44;17.80;;;5.30;;
3625;SDS011;1827;50.534;8.316;2023-06-26T10:15:13;22.90;;;4.50;;
3625;SDS011;1827;50.534;8.316;2023-06-26T10:17:43;18.63;;;4.10;;
3625;SDS011;1827;50.534;8.316;2023-06-26T10:20:18;19.70;;;4.40;;
3625;SDS011;1827;50.534;8.316;2023-06-26T10:22:45;18.07;;;4.43;;
3625;SDS011;1827;50.534;8.316;2023-06-26T10:25:18;18.77;;;4.93;;
3625;SDS011;1827;50.534;8.316;2023-06-26T10:27:50;18.93;;;4.33;;
3625;SDS011;1827;50.534;8.316;2023-06-26T10:30:26;19.50;;;4.33;;
3625;SDS011;1827;50.534;8.316;2023-06-26T10:33:02;21.10;;;4.60;;
3625;SDS011;1827;50.534;8.316;2023-06-26T10:35:33;17.97;;;4.20;;
3625;SDS011;1827;50.534;8.316;2023-06-26T10:38:14;22.10;;;4.57;;
3625;SDS011;1827;50.534;8.316;2023-06-26T10:40:47;17.77;;;4.87;;
3625;SDS011;1827;50.534;8.316;2023-06-26T10:43:16;21.00;;;4.40;;
3625;SDS011;1827;50.534;8.316;2023-06-26T10:45:49;20.97;;;4.50;;
3625;SDS011;1827;50.534;8.316;2023-06-26T10:48:21;23.13;;;5.23;;
3625;SDS011;1827;50.534;8.316;2023-06-26T10:50:50;19.13;;;5.17;;
3625;SDS011;1827;50.534;8.316;2023-06-26T11:04:13;16.70;;;4.23;;
3625;SDS011;1827;50.534;8.316;2023-06-26T11:06:45;17.10;;;4.30;;
3625;SDS011;1827;50.534;8.316;2023-06-26T11:09:15;16.27;;;3.87;;
3625;SDS011;1827;50.534;8.316;2023-06-26T11:11:55;20.47;;;3.83;;
3625;SDS011;1827;50.534;8.316;2023-06-26T11:14:26;17.77;;;3.53;;
3625;SDS011;1827;50.534;8.316;2023-06-26T11:16:55;15.97;;;3.83;;
3625;SDS011;1827;50.534;8.316;2023-06-26T11:19:26;18.23;;;4.40;;
3625;SDS011;1827;50.534;8.316;2023-06-26T11:21:59;19.80;;;4.10;;
3625;SDS011;1827;50.534;8.316;2023-06-26T11:24:34;22.00;;;4.60;;
3625;SDS011;1827;50.534;8.316;2023-06-26T11:27:04;25.53;;;4.63;;
3625;SDS011;1827;50.534;8.316;2023-06-26T11:29:34;17.43;;;4.97;;
3625;SDS011;1827;50.534;8.316;2023-06-26T11:32:05;30.53;;;5.37;;
3625;SDS011;1827;50.534;8.316;2023-06-26T11:34:33;20.00;;;4.90;;
3625;SDS011;1827;50.534;8.316;2023-06-26T11:37:00;17.00;;;4.13;;
3625;SDS011;1827;50.534;8.316;2023-06-26T11:39:31;21.90;;;4.70;;
3625;SDS011;1827;50.534;8.316;2023-06-26T11:42:03;22.60;;;5.00;;
3625;SDS011;1827;50.534;8.316;2023-06-26T11:44:39;17.27;;;4.03;;
3625;SDS011;1827;50.534;8.316;2023-06-26T11:47:17;17.43;;;4.17;;
3625;SDS011;1827;50.534;8.316;2023-06-26T11:49:50;20.10;;;4.60;;
3625;SDS011;1827;50.534;8.316;2023-06-26T11:52:18;18.67;;;3.93;;
3625;SDS011;1827;50.534;8.316;2023-06-26T11:54:49;22.33;;;3.70;;
3625;SDS011;1827;50.534;8.316;2023-06-26T11:57:19;20.73;;;3.67;;
3625;SDS011;1827;50.534;8.316;2023-06-26T11:59:49;20.80;;;3.83;;
3625;SDS011;1827;50.534;8.316;2023-06-26T12:02:17;14.10;;;3.27;;
3625;SDS011;1827;50.534;8.316;2023-06-26T12:04:49;17.00;;;3.80;;
3625;SDS011;1827;50.534;8.316;2023-06-26T12:07:21;18.00;;;3.67;;
3625;SDS011;1827;50.534;8.316;2023-06-26T12:12:51;19.90;;;3.90;;
3625;SDS011;1827;50.534;8.316;2023-06-26T12:15:33;28.43;;;3.60;;
3625;SDS011;1827;50.534;8.316;2023-06-26T12:18:08;16.40;;;4.00;;
3625;SDS011;1827;50.534;8.316;2023-06-26T12:20:39;18.13;;;3.83;;
3625;SDS011;1827;50.534;8.316;2023-06-26T12:23:11;17.80;;;3.57;;
3625;SDS011;1827;50.534;8.316;2023-06-26T12:25:38;17.80;;;3.70;;
3625;SDS011;1827;50.534;8.316;2023-06-26T12:28:14;19.43;;;3.60;;
3625;SDS011;1827;50.534;8.316;2023-06-26T12:30:47;20.10;;;3.67;;
3625;SDS011;1827;50.534;8.316;2023-06-26T12:33:37;18.97;;;3.37;;
3625;SDS011;1827;50.534;8.316;2023-06-26T12:36:10;22.83;;;3.47;;
3625;SDS011;1827;50.534;8.316;2023-06-26T12:38:41;17.43;;;2.73;;
3625;SDS011;1827;50.534;8.316;2023-06-26T12:41:14;24.93;;;3.20;;
3625;SDS011;1827;50.534;8.316;2023-06-26T12:43:43;20.03;;;3.07;;
3625;SDS011;1827;50.534;8.316;2023-06-26T12:46:12;18.13;;;2.80;;
3625;SDS011;1827;50.534;8.316;2023-06-26T12:48:42;23.40;;;3.13;;
3625;SDS011;1827;50.534;8.316;2023-06-26T12:51:14;19.60;;;2.70;;
3625;SDS011;1827;50.534;8.316;2023-06-26T12:53:44;15.77;;;3.20;;
3625;SDS011;1827;50.534;8.316;2023-06-26T12:56:14;19.20;;;2.63;;
3625;SDS011;1827;50.534;8.316;2023-06-26T12:58:46;16.90;;;2.60;;
3625;SDS011;1827;50.534;8.316;2023-06-26T13:01:18;21.00;;;2.83;;
3625;SDS011;1827;50.534;8.316;2023-06-26T13:03:47;17.43;;;2.77;;
3625;SDS011;1827;50.534;8.316;2023-06-26T13:06:14;16.90;;;2.67;;
3625;SDS011;1827;50.534;8.316;2023-06-26T13:08:44;15.07;;;2.60;;
3625;SDS011;1827;50.534;8.316;2023-06-26T13:11:13;13.10;;;2.30;;
3625;SDS011;1827;50.534;8.316;2023-06-26T13:13:43;15.60;;;2.73;;
3625;SDS011;1827;50.534;8.316;2023-06-26T13:16:13;20.43;;;2.60;;
3625;SDS011;1827;50.534;8.316;2023-06-26T13:18:44;19.23;;;2.97;;
3625;SDS011;1827;50.534;8.316;2023-06-26T13:21:14;16.63;;;2.80;;
3625;SDS011;1827;50.534;8.316;2023-06-26T13:23:49;18.50;;;2.67;;
3625;SDS011;1827;50.534;8.316;2023-06-26T13:26:20;15.50;;;2.70;;
3625;SDS011;1827;50.534;8.316;2023-06-26T13:28:49;15.50;;;2.60;;
3625;SDS011;1827;50.534;8.316;2023-06-26T13:31:19;15.53;;;2.20;;
3625;SDS011;1827;50.534;8.316;2023-06-26T13:33:48;23.23;;;2.50;;
3625;SDS011;1827;50.534;8.316;2023-06-26T13:36:17;18.07;;;2.80;;
3625;SDS011;1827;50.534;8.316;2023-06-26T13:38:46;18.10;;;2.70;;
3625;SDS011;1827;50.534;8.316;2023-06-26T13:41:22;19.23;;;2.70;;
3625;SDS011;1827;50.534;8.316;2023-06-26T13:43:49;31.53;;;3.23;;
3625;SDS011;1827;50.534;8.316;2023-06-26T13:46:17;23.40;;;2.70;;
3625;SDS011;1827;50.534;8.316;2023-06-26T13:48:46;16.27;;;2.60;;
3625;SDS011;1827;50.534;8.316;2023-06-26T13:51:16;18.90;;;3.70;;
3625;SDS011;1827;50.534;8.316;2023-06-26T13:53:44;17.90;;;2.50;;
3625;SDS011;1827;50.534;8.316;2023-06-26T13:56:11;20.77;;;2.80;;
3625;SDS011;1827;50.534;8.316;2023-06-26T13:58:40;22.63;;;2.50;;
3625;SDS011;1827;50.534;8.316;2023-06-26T14:01:07;14.77;;;2.17;;
3625;SDS011;1827;50.534;8.316;2023-06-26T14:03:33;15.77;;;2.50;;
3625;SDS011;1827;50.534;8.316;2023-06-26T14:05:59;23.00;;;2.30;;
3625;SDS011;1827;50.534;8.316;2023-06-26T14:08:27;15.33;;;2.40;;
3625;SDS011;1827;50.534;8.316;2023-06-26T14:10:54;18.40;;;2.60;;
3625;SDS011;1827;50.534;8.316;2023-06-26T14:13:22;16.97;;;2.33;;
3625;SDS011;1827;50.534;8.316;2023-06-26T14:15:48;15.70;;;2.57;;
3625;SDS011;1827;50.534;8.316;2023-06-26T14:18:21;18.40;;;2.20;;
3625;SDS011;1827;50.534;8.316;2023-06-26T14:20:51;21.13;;;2.80;;
3625;SDS011;1827;50.534;8.316;2023-06-26T14:23:21;19.87;;;2.70;;
3625;SDS011;1827;50.534;8.316;2023-06-26T14:25:52;15.37;;;2.53;;
3625;SDS011;1827;50.534;8.316;2023-06-26T14:28:20;16.07;;;2.47;;
3625;SDS011;1827;50.534;8.316;2023-06-26T14:30:46;22.43;;;2.60;;
3625;SDS011;1827;50.534;8.316;2023-06-26T14:33:12;21.33;;;3.13;;
3625;SDS011;1827;50.534;8.316;2023-06-26T14:35:41;18.27;;;2.93;;
3625;SDS011;1827;50.534;8.316;2023-06-26T14:38:07;15.87;;;2.33;;
3625;SDS011;1827;50.534;8.316;2023-06-26T14:40:33;17.63;;;2.77;;
3625;SDS011;1827;50.534;8.316;2023-06-26T14:42:59;24.73;;;3.13;;
3625;SDS011;1827;50.534;8.316;2023-06-26T14:45:33;17.40;;;2.80;;
3625;SDS011;1827;50.534;8.316;2023-06-26T14:48:00;21.13;;;2.90;;
3625;SDS011;1827;50.534;8.316;2023-06-26T14:50:33;16.93;;;2.20;;
3625;SDS011;1827;50.534;8.316;2023-06-26T14:53:02;18.40;;;2.57;;
3625;SDS011;1827;50.534;8.316;2023-06-26T14:55:32;13.93;;;2.13;;
3625;SDS011;1827;50.534;8.316;2023-06-26T14:58:03;14.50;;;2.40;;
3625;SDS011;1827;50.534;8.316;2023-06-26T15:00:31;15.17;;;2.30;;
3625;SDS011;1827;50.534;8.316;2023-06-26T15:03:01;29.40;;;2.90;;
3625;SDS011;1827;50.534;8.316;2023-06-26T15:05:32;20.70;;;3.03;;
3625;SDS011;1827;50.534;8.316;2023-06-26T15:08:01;26.57;;;2.93;;
3625;SDS011;1827;50.534;8.316;2023-06-26T15:10:31;21.67;;;2.87;;
3625;SDS011;1827;50.534;8.316;2023-06-26T15:13:03;18.83;;;2.50;;
3625;SDS011;1827;50.534;8.316;2023-06-26T15:15:31;23.80;;;2.70;;
3625;SDS011;1827;50.534;8.316;2023-06-26T15:18:02;17.70;;;3.00;;
3625;SDS011;1827;50.534;8.316;2023-06-26T15:20:33;19.10;;;3.00;;
3625;SDS011;1827;50.534;8.316;2023-06-26T15:22:59;22.73;;;2.80;;
3625;SDS011;1827;50.534;8.316;2023-06-26T15:25:28;18.87;;;2.73;;
3625;SDS011;1827;50.534;8.316;2023-06-26T15:27:57;19.70;;;2.90;;
3625;SDS011;1827;50.534;8.316;2023-06-26T15:30:23;19.50;;;3.33;;
3625;SDS011;1827;50.534;8.316;2023-06-26T15:32:52;19.23;;;2.97;;
3625;SDS011;1827;50.534;8.316;2023-06-26T15:35:24;20.13;;;3.57;;
3625;SDS011;1827;50.534;8.316;2023-06-26T15:41:01;21.23;;;2.37;;